Tahitian Princess — ZCDD8 — position and weather

sailwx.info

Track history (hours):
 
Tides and Currents Weather Stations Pressure Air Temp Water Temp Dewpoint Dewpoint Depression Visibility Wind Speed Wind Dir Waves Ship Positions

Tahitian Princess

Operator: P & O Irish Sea Ltd

Last reported at 2017-Nov-19 05:29 UTC. Time now 2017-Nov-19 14:14 UTC.
Position N 53°22' W 005°59'.

Length 167 m; draft 5.8 m.

Type: Passenger vessel. MMSI: 310362000.

Date/timePositionNaut miles runAvg speedWind from/ knotsBaromVisibWave heightAir tempDewpointWater temp
2017-Nov-19 05:29N 53°22' W 005°59'7119.3
2017-Nov-19 01:48N 53°35' W 004°02'620.3
2017-Nov-19 01:30N 53°35' W 003°52'1019.6
2017-Nov-19 01:00N 53°34' W 003°36'1019.0
2017-Nov-19 00:30N 53°32' W 003°20'917.4
2017-Nov-19 00:00N 53°30' W 003°06'4 8.6
2017-Nov-18 23:30N 53°27' W 003°01'0 0.9
2017-Nov-18 23:00N 53°27' W 003°01'0 0.0
2017-Nov-18 22:30N 53°27' W 003°01'0 0.0
2017-Nov-18 22:00N 53°27' W 003°01'0 0.0
2017-Nov-18 21:30N 53°27' W 003°01'0 0.0
2017-Nov-18 21:00N 53°27' W 003°01'0 0.0
2017-Nov-18 20:30N 53°27' W 003°01'0 0.0
2017-Nov-18 20:00N 53°27' W 003°01'0 0.0
2017-Nov-18 19:30N 53°27' W 003°01'0 0.0
2017-Nov-18 19:00N 53°27' W 003°01'0 0.0
2017-Nov-18 18:30N 53°27' W 003°01'0 0.0
2017-Nov-18 18:00N 53°27' W 003°01'0 0.0
2017-Nov-18 17:30N 53°27' W 003°01'0 0.0
2017-Nov-18 17:00N 53°27' W 003°01'0 0.9
2017-Nov-18 16:30N 53°27' W 003°01'0 0.4
2017-Nov-18 16:00N 53°27' W 003°01'612.8
2017-Nov-18 15:30N 53°32' W 003°09'816.5
2017-Nov-18 15:00N 53°31' W 003°22'1019.1
2017-Nov-18 14:30N 53°31' W 003°39'918.7
2017-Nov-18 14:00N 53°32' W 003°54'918.6
2017-Nov-18 13:30N 53°33' W 004°10'3 0.2
2017-Nov-18 00:44N 53°35' W 004°06'419.6
2017-Nov-18 00:30N 53°35' W 003°58'1019.1
2017-Nov-18 00:00N 53°34' W 003°43'918.6
2017-Nov-17 23:30N 53°32' W 003°27'918.1
2017-Nov-17 23:00N 53°31' W 003°12'713.6
2017-Nov-17 22:30N 53°28' W 003°02'2 3.3
2017-Nov-17 22:00N 53°26' W 003°01'1 1.2
2017-Nov-17 21:30N 53°27' W 003°01'1 1.0
2017-Nov-17 21:00N 53°27' W 003°01'0 0.0
2017-Nov-17 20:30N 53°27' W 003°01'0 0.0
2017-Nov-17 20:00N 53°27' W 003°01'0 0.0
2017-Nov-17 19:30N 53°27' W 003°01'0 0.0
2017-Nov-17 19:00N 53°27' W 003°01'0 0.0
2017-Nov-17 18:30N 53°27' W 003°01'0 0.0
2017-Nov-17 18:00N 53°27' W 003°01'0 0.0
2017-Nov-17 17:30N 53°27' W 003°01'0 0.0
2017-Nov-17 17:00N 53°27' W 003°01'0 0.9
2017-Nov-17 16:30N 53°27' W 003°01'0 0.3
2017-Nov-17 16:00N 53°27' W 003°01'510.4
2017-Nov-17 15:30N 53°31' W 003°07'714.4
2017-Nov-17 15:00N 53°31' W 003°19'1019.5
2017-Nov-17 14:30N 53°31' W 003°35'1019.1
2017-Nov-17 14:00N 53°32' W 003°51'1019.0
2017-Nov-17 13:30N 53°33' W 004°07'67 7.4
2017-Nov-17 04:29N 53°22' W 005°58'7119.4
2017-Nov-17 00:51N 53°37' W 004°03'720.1
2017-Nov-17 00:30N 53°35' W 003°51'1019.8
2017-Nov-17 00:00N 53°33' W 003°35'1019.3
2017-Nov-16 23:30N 53°32' W 003°19'917.1
2017-Nov-16 23:00N 53°30' W 003°05'4 7.1
2017-Nov-16 22:30N 53°27' W 003°01'0 0.9
2017-Nov-16 22:00N 53°27' W 003°01'0 0.0
2017-Nov-16 21:29N 53°27' W 003°01'0 0.0
2017-Nov-16 21:00N 53°27' W 003°01'0 0.0
2017-Nov-16 20:30N 53°27' W 003°01'0 0.0
2017-Nov-16 20:00N 53°27' W 003°01'0 0.0
2017-Nov-16 19:30N 53°27' W 003°01'0 0.0
2017-Nov-16 19:00N 53°27' W 003°01'0 0.0
2017-Nov-16 18:30N 53°27' W 003°01'0 0.0
2017-Nov-16 18:00N 53°27' W 003°01'0 0.0
2017-Nov-16 17:31N 53°27' W 003°01'0 0.0
2017-Nov-16 17:00N 53°27' W 003°01'0 0.9
2017-Nov-16 16:30N 53°27' W 003°01'0 0.8
2017-Nov-16 16:00N 53°27' W 003°02'713.4
2017-Nov-16 15:30N 53°32' W 003°10'816.2
2017-Nov-16 15:01N 53°31' W 003°23'1019.4
2017-Nov-16 14:30N 53°31' W 003°40'1019.1
2017-Nov-16 14:00N 53°32' W 003°56'3 0.2
2017-Nov-15 23:56N 53°35' W 003°59'1018.0
2017-Nov-15 23:23N 53°34' W 003°43'718.0
2017-Nov-15 23:00N 53°34' W 003°31'917.7
2017-Nov-15 22:30N 53°32' W 003°17'815.2
2017-Nov-15 22:00N 53°29' W 003°05'3 6.2
2017-Nov-15 21:30N 53°27' W 003°01'0 0.9
2017-Nov-15 21:00N 53°27' W 003°01'0 0.0
2017-Nov-15 20:30N 53°27' W 003°01'0 0.0
2017-Nov-15 20:00N 53°27' W 003°01'0 0.0
2017-Nov-15 19:30N 53°27' W 003°01'0 0.0
2017-Nov-15 19:00N 53°27' W 003°01'0 0.0
2017-Nov-15 18:30N 53°27' W 003°01'0 0.0
2017-Nov-15 18:00N 53°27' W 003°01'0 0.0
2017-Nov-15 17:30N 53°27' W 003°01'0 0.0
2017-Nov-15 17:00N 53°27' W 003°01'0 0.9
2017-Nov-15 16:30N 53°27' W 003°01'0 0.3
2017-Nov-15 16:00N 53°27' W 003°01'510.0
2017-Nov-15 15:30N 53°31' W 003°06'815.3
2017-Nov-15 15:00N 53°31' W 003°19'1019.9
2017-Nov-15 14:30N 53°31' W 003°36'1019.5
2017-Nov-15 14:00N 53°32' W 003°52'76 7.8
2017-Nov-15 04:17N 53°22' W 005°58'816.0
2017-Nov-15 03:49N 53°24' W 005°46'6317.1
2017-Nov-15 00:07N 53°34' W 004°01'219.2
2017-Nov-14 23:59N 53°34' W 003°57'1119.7
2017-Nov-14 23:27N 53°33' W 003°39'919.4
2017-Nov-14 23:00N 53°33' W 003°24'918.3
2017-Nov-14 22:30N 53°32' W 003°09'713.6
2017-Nov-14 22:00N 53°27' W 003°01'0 0.6
2017-Nov-14 21:31N 53°27' W 003°01'0 0.4
2017-Nov-14 21:00N 53°27' W 003°01'0 0.0
2017-Nov-14 20:27N 53°27' W 003°01'0 0.0
2017-Nov-14 19:54N 53°27' W 003°01'0 0.0
2017-Nov-14 19:30N 53°27' W 003°01'0 0.0
2017-Nov-14 18:57N 53°27' W 003°01'0 0.0
2017-Nov-14 18:30N 53°27' W 003°01'0 0.0
2017-Nov-14 18:00N 53°27' W 003°01'0 0.0
2017-Nov-14 17:30N 53°27' W 003°01'0 0.0
2017-Nov-14 17:00N 53°27' W 003°01'0 0.9
2017-Nov-14 16:30N 53°27' W 003°01'0 0.3
2017-Nov-14 16:00N 53°27' W 003°01'4 8.8
2017-Nov-14 15:30N 53°30' W 003°06'815.6
2017-Nov-14 15:00N 53°31' W 003°19'1020.1
2017-Nov-14 14:30N 53°31' W 003°36'1020.0
2017-Nov-14 14:00N 53°32' W 003°53'7419.2
2017-Nov-14 10:09N 53°22' W 005°56'319.7
2017-Nov-14 10:00N 53°21' W 006°01'613.0
2017-Nov-14 09:30N 53°21' W 006°11'1 2.1
2017-Nov-14 09:00N 53°21' W 006°13'0 0.0
2017-Nov-14 08:30N 53°21' W 006°13'0 0.0
2017-Nov-14 08:00N 53°21' W 006°13'0 0.0
2017-Nov-14 07:30N 53°21' W 006°13'0 0.0
2017-Nov-14 07:00N 53°21' W 006°13'0 0.0
2017-Nov-14 06:30N 53°21' W 006°13'0 0.0
2017-Nov-14 06:00N 53°21' W 006°13'0 0.0
2017-Nov-14 05:30N 53°21' W 006°13'0 0.2
2017-Nov-14 05:00N 53°21' W 006°13'510.6
2017-Nov-14 04:30N 53°20' W 006°04'815.7
2017-Nov-14 04:00N 53°24' W 005°52'7915.2
2017-Nov-13 22:49N 53°34' W 003°40'515.9
2017-Nov-13 22:30N 53°33' W 003°32'816.0
2017-Nov-13 22:00N 53°32' W 003°19'96 4.0
2017-Nov-12 21:42N 53°21' W 005°59'317.4
2017-Nov-12 21:31N 53°20' W 006°05'510.1
2017-Nov-12 21:00N 53°21' W 006°13'0 0.3
2017-Nov-12 20:30N 53°21' W 006°13'0 0.0
2017-Nov-12 20:00N 53°21' W 006°13'0 0.0
2017-Nov-12 19:30N 53°21' W 006°13'0 0.0
2017-Nov-12 19:00N 53°21' W 006°13'0 0.0
2017-Nov-12 18:30N 53°21' W 006°13'0 0.0
2017-Nov-12 18:00N 53°21' W 006°13'0 0.0
2017-Nov-12 17:30N 53°21' W 006°13'0 0.0
2017-Nov-12 17:00N 53°21' W 006°13'0 0.0
2017-Nov-12 16:30N 53°21' W 006°13'0 0.0
2017-Nov-12 15:59N 53°21' W 006°13'0 0.0
2017-Nov-12 15:29N 53°21' W 006°13'0 0.0
2017-Nov-12 15:00N 53°21' W 006°13'0 0.0
2017-Nov-12 14:30N 53°21' W 006°13'0 0.0
2017-Nov-12 14:00N 53°21' W 006°13'0 0.0
2017-Nov-12 13:30N 53°21' W 006°13'0 0.0
2017-Nov-12 13:00N 53°21' W 006°13'0 0.0
2017-Nov-12 12:30N 53°21' W 006°13'0 0.0
2017-Nov-12 12:00N 53°21' W 006°13'0 0.0
2017-Nov-12 11:30N 53°21' W 006°13'0 0.0
2017-Nov-12 11:00N 53°21' W 006°13'0 0.0
2017-Nov-12 10:30N 53°21' W 006°13'0 0.0
2017-Nov-12 10:00N 53°21' W 006°13'0 0.0
2017-Nov-12 09:30N 53°21' W 006°13'0 0.0
2017-Nov-12 09:00N 53°21' W 006°13'0 0.0
2017-Nov-12 08:28N 53°21' W 006°13'0 0.0
2017-Nov-12 08:00N 53°21' W 006°13'0 0.0
2017-Nov-12 07:30N 53°21' W 006°13'0 0.0
2017-Nov-12 07:00N 53°21' W 006°13'0 0.0
2017-Nov-12 06:30N 53°21' W 006°13'1 1.2
2017-Nov-12 06:00N 53°21' W 006°12'713.8
2017-Nov-12 05:31N 53°21' W 006°01'918.2
2017-Nov-12 05:00N 53°24' W 005°46'6016.8
2017-Nov-12 01:27N 53°35' W 004°08'817.7
2017-Nov-12 01:00N 53°35' W 003°54'918.2
2017-Nov-12 00:31N 53°34' W 003°39'918.5
2017-Nov-12 00:00N 53°33' W 003°24'917.4
2017-Nov-11 23:30N 53°32' W 003°09'713.4
2017-Nov-11 23:00N 53°27' W 003°01'0 0.0
2017-Nov-11 22:30N 53°27' W 003°01'0 0.8
2017-Nov-11 22:00N 53°27' W 003°01'0 0.0
2017-Nov-11 21:30N 53°27' W 003°01'0 0.0
2017-Nov-11 21:00N 53°27' W 003°01'0 0.0
2017-Nov-11 20:30N 53°27' W 003°01'0 0.0
2017-Nov-11 20:00N 53°27' W 003°01'0 0.0
2017-Nov-11 19:30N 53°27' W 003°01'0 0.0
2017-Nov-11 19:00N 53°27' W 003°01'0 0.0
2017-Nov-11 18:30N 53°27' W 003°01'0 0.4
2017-Nov-11 18:00N 53°27' W 003°01'0 0.9
2017-Nov-11 17:30N 53°27' W 003°01'3 5.0
2017-Nov-11 17:00N 53°28' W 003°04'3 6.5
2017-Nov-11 16:30N 53°31' W 003°07'815.8
2017-Nov-11 16:00N 53°31' W 003°20'917.1
2017-Nov-11 15:30N 53°31' W 003°35'816.3
2017-Nov-11 15:00N 53°32' W 003°48'7615.0
2017-Nov-11 09:57N 53°22' W 005°55'716.4
2017-Nov-11 09:30N 53°20' W 006°07'4 7.5
2017-Nov-11 09:00N 53°21' W 006°13'0 0.0
2017-Nov-11 08:30N 53°21' W 006°13'0 0.0
2017-Nov-11 08:00N 53°21' W 006°13'0 0.0
2017-Nov-11 07:31N 53°21' W 006°13'0 0.0
2017-Nov-11 07:00N 53°21' W 006°13'0 0.0
2017-Nov-11 06:30N 53°21' W 006°13'0 0.0
2017-Nov-11 06:00N 53°21' W 006°13'0 0.0
2017-Nov-11 05:30N 53°21' W 006°13'0 0.2
2017-Nov-11 05:00N 53°21' W 006°13'612.2
2017-Nov-11 04:30N 53°21' W 006°03'7318.5
2017-Nov-11 00:34N 53°34' W 004°03'117.3
2017-Nov-11 00:30N 53°34' W 004°01'917.4
2017-Nov-10 23:58N 53°34' W 003°45'817.7
2017-Nov-10 23:30N 53°33' W 003°31'917.8
2017-Nov-10 23:00N 53°32' W 003°17'714.9
2017-Nov-10 22:30N 53°29' W 003°05'3 6.4
2017-Nov-10 22:00N 53°27' W 003°01'0 0.7
2017-Nov-10 21:30N 53°27' W 003°01'0 0.2
2017-Nov-10 21:00N 53°27' W 003°01'0 0.0
2017-Nov-10 20:30N 53°27' W 003°01'0 0.0
2017-Nov-10 20:00N 53°27' W 003°01'0 0.0
2017-Nov-10 19:30N 53°27' W 003°01'0 0.0
2017-Nov-10 19:00N 53°27' W 003°01'0 0.0
2017-Nov-10 18:30N 53°27' W 003°01'0 0.0
2017-Nov-10 18:00N 53°27' W 003°01'0 0.0
2017-Nov-10 17:30N 53°27' W 003°01'0 0.0
2017-Nov-10 17:00N 53°27' W 003°01'0 0.8
2017-Nov-10 16:30N 53°27' W 003°01'1 1.8
2017-Nov-10 16:00N 53°27' W 003°02'714.1
2017-Nov-10 15:30N 53°31' W 003°12'918.6
2017-Nov-10 15:00N 53°31' W 003°28'1019.0
2017-Nov-10 14:30N 53°31' W 003°44'1019.5
2017-Nov-10 14:00N 53°32' W 004°00'6619.4
2017-Nov-10 10:36N 53°24' W 005°49'219.0
2017-Nov-10 10:29N 53°23' W 005°53'817.2
2017-Nov-10 10:00N 53°20' W 006°06'4 8.2
2017-Nov-10 09:30N 53°21' W 006°13'0 0.0
2017-Nov-10 09:00N 53°21' W 006°13'0 0.0
2017-Nov-10 08:30N 53°21' W 006°13'0 0.0
2017-Nov-10 08:00N 53°21' W 006°13'0 0.0
2017-Nov-10 07:30N 53°21' W 006°13'0 0.0
2017-Nov-10 07:00N 53°21' W 006°13'0 0.0
2017-Nov-10 06:30N 53°21' W 006°13'0 0.0
2017-Nov-10 06:00N 53°21' W 006°13'0 0.1
2017-Nov-10 05:30N 53°21' W 006°13'4 8.1
2017-Nov-10 05:00N 53°20' W 006°06'1019.4
2017-Nov-10 04:31N 53°24' W 005°51'6518.7
2017-Nov-10 01:02N 53°35' W 004°03'118.1
2017-Nov-10 00:58N 53°35' W 004°01'1318.4
2017-Nov-10 00:17N 53°34' W 003°40'518.5
2017-Nov-10 00:00N 53°33' W 003°31'918.6
2017-Nov-09 23:31N 53°32' W 003°16'713.8
2017-Nov-09 23:00N 53°29' W 003°05'3 6.7
2017-Nov-09 22:30N 53°27' W 003°01'0 0.8
2017-Nov-09 22:00N 53°27' W 003°01'0 0.1
2017-Nov-09 21:29N 53°27' W 003°01'0 0.0
2017-Nov-09 20:59N 53°27' W 003°01'0 0.0
2017-Nov-09 20:23N 53°27' W 003°01'0 0.0
2017-Nov-09 19:59N 53°27' W 003°01'0 0.0
2017-Nov-09 19:29N 53°27' W 003°01'0 0.0
2017-Nov-09 18:53N 53°27' W 003°01'0 0.0
2017-Nov-09 18:29N 53°27' W 003°01'0 0.7
2017-Nov-09 18:00N 53°27' W 003°01'0 0.6
2017-Nov-09 17:30N 53°27' W 003°01'1 1.0
2017-Nov-09 17:00N 53°27' W 003°02'2 4.4
2017-Nov-09 16:30N 53°29' W 003°04'3 5.6
2017-Nov-09 16:00N 53°31' W 003°07'4 7.4
2017-Nov-09 15:30N 53°31' W 003°13'5 9.1
2017-Nov-09 15:00N 53°31' W 003°21'816.7
2017-Nov-09 14:30N 53°30' W 003°35'1019.0
2017-Nov-09 13:59N 53°31' W 003°51'919.5
2017-Nov-09 13:30N 53°33' W 004°07'6219.5
2017-Nov-09 10:19N 53°23' W 005°50'619.2
2017-Nov-09 10:00N 53°21' W 005°60'714.4
2017-Nov-09 09:30N 53°21' W 006°12'1 1.9
2017-Nov-09 09:00N 53°21' W 006°13'0 0.0
2017-Nov-09 08:30N 53°21' W 006°13'0 0.0
2017-Nov-09 08:00N 53°21' W 006°13'0 0.0
2017-Nov-09 07:30N 53°21' W 006°13'0 0.0
2017-Nov-09 07:00N 53°21' W 006°13'0 0.0
2017-Nov-09 06:30N 53°21' W 006°13'0 0.0
2017-Nov-09 06:00N 53°21' W 006°13'0 0.0
2017-Nov-09 05:30N 53°21' W 006°13'  
Track history (hours):
 
Tides and Currents Weather Stations Pressure Air Temp Water Temp Dewpoint Dewpoint Depression Visibility Wind Speed Wind Dir Waves Ship Positions

Tahitian Princess

Operator: P & O Irish Sea Ltd

Last reported at 2017-Nov-19 05:29 UTC. Time now 2017-Nov-19 14:14 UTC.
Position N 53°22' W 005°59'.

Length 167 m; draft 5.8 m.

Type: Passenger vessel. MMSI: 310362000.

Date/timePositionNaut miles runAvg speedWind from/ knotsBaromVisibWave heightAir tempDewpointWater temp
2017-Nov-19 05:29N 53°22' W 005°59'7119.3
2017-Nov-19 01:48N 53°35' W 004°02'620.3
2017-Nov-19 01:30N 53°35' W 003°52'1019.6
2017-Nov-19 01:00N 53°34' W 003°36'1019.0
2017-Nov-19 00:30N 53°32' W 003°20'917.4
2017-Nov-19 00:00N 53°30' W 003°06'4 8.6
2017-Nov-18 23:30N 53°27' W 003°01'0 0.9
2017-Nov-18 23:00N 53°27' W 003°01'0 0.0
2017-Nov-18 22:30N 53°27' W 003°01'0 0.0
2017-Nov-18 22:00N 53°27' W 003°01'0 0.0
2017-Nov-18 21:30N 53°27' W 003°01'0 0.0
2017-Nov-18 21:00N 53°27' W 003°01'0 0.0
2017-Nov-18 20:30N 53°27' W 003°01'0 0.0
2017-Nov-18 20:00N 53°27' W 003°01'0 0.0
2017-Nov-18 19:30N 53°27' W 003°01'0 0.0
2017-Nov-18 19:00N 53°27' W 003°01'0 0.0
2017-Nov-18 18:30N 53°27' W 003°01'0 0.0
2017-Nov-18 18:00N 53°27' W 003°01'0 0.0
2017-Nov-18 17:30N 53°27' W 003°01'0 0.0
2017-Nov-18 17:00N 53°27' W 003°01'0 0.9
2017-Nov-18 16:30N 53°27' W 003°01'0 0.4
2017-Nov-18 16:00N 53°27' W 003°01'612.8
2017-Nov-18 15:30N 53°32' W 003°09'816.5
2017-Nov-18 15:00N 53°31' W 003°22'1019.1
2017-Nov-18 14:30N 53°31' W 003°39'918.7
2017-Nov-18 14:00N 53°32' W 003°54'918.6
2017-Nov-18 13:30N 53°33' W 004°10'3 0.2
2017-Nov-18 00:44N 53°35' W 004°06'419.6
2017-Nov-18 00:30N 53°35' W 003°58'1019.1
2017-Nov-18 00:00N 53°34' W 003°43'918.6
2017-Nov-17 23:30N 53°32' W 003°27'918.1
2017-Nov-17 23:00N 53°31' W 003°12'713.6
2017-Nov-17 22:30N 53°28' W 003°02'2 3.3
2017-Nov-17 22:00N 53°26' W 003°01'1 1.2
2017-Nov-17 21:30N 53°27' W 003°01'1 1.0
2017-Nov-17 21:00N 53°27' W 003°01'0 0.0
2017-Nov-17 20:30N 53°27' W 003°01'0 0.0
2017-Nov-17 20:00N 53°27' W 003°01'0 0.0
2017-Nov-17 19:30N 53°27' W 003°01'0 0.0
2017-Nov-17 19:00N 53°27' W 003°01'0 0.0
2017-Nov-17 18:30N 53°27' W 003°01'0 0.0
2017-Nov-17 18:00N 53°27' W 003°01'0 0.0
2017-Nov-17 17:30N 53°27' W 003°01'0 0.0
2017-Nov-17 17:00N 53°27' W 003°01'0 0.9
2017-Nov-17 16:30N 53°27' W 003°01'0 0.3
2017-Nov-17 16:00N 53°27' W 003°01'510.4
2017-Nov-17 15:30N 53°31' W 003°07'714.4
2017-Nov-17 15:00N 53°31' W 003°19'1019.5
2017-Nov-17 14:30N 53°31' W 003°35'1019.1
2017-Nov-17 14:00N 53°32' W 003°51'1019.0
2017-Nov-17 13:30N 53°33' W 004°07'67 7.4
2017-Nov-17 04:29N 53°22' W 005°58'7119.4
2017-Nov-17 00:51N 53°37' W 004°03'720.1
2017-Nov-17 00:30N 53°35' W 003°51'1019.8
2017-Nov-17 00:00N 53°33' W 003°35'1019.3
2017-Nov-16 23:30N 53°32' W 003°19'917.1
2017-Nov-16 23:00N 53°30' W 003°05'4 7.1
2017-Nov-16 22:30N 53°27' W 003°01'0 0.9
2017-Nov-16 22:00N 53°27' W 003°01'0 0.0
2017-Nov-16 21:29N 53°27' W 003°01'0 0.0
2017-Nov-16 21:00N 53°27' W 003°01'0 0.0
2017-Nov-16 20:30N 53°27' W 003°01'0 0.0
2017-Nov-16 20:00N 53°27' W 003°01'0 0.0
2017-Nov-16 19:30N 53°27' W 003°01'0 0.0
2017-Nov-16 19:00N 53°27' W 003°01'0 0.0
2017-Nov-16 18:30N 53°27' W 003°01'0 0.0
2017-Nov-16 18:00N 53°27' W 003°01'0 0.0
2017-Nov-16 17:31N 53°27' W 003°01'0 0.0
2017-Nov-16 17:00N 53°27' W 003°01'0 0.9
2017-Nov-16 16:30N 53°27' W 003°01'0 0.8
2017-Nov-16 16:00N 53°27' W 003°02'713.4
2017-Nov-16 15:30N 53°32' W 003°10'816.2
2017-Nov-16 15:01N 53°31' W 003°23'1019.4
2017-Nov-16 14:30N 53°31' W 003°40'1019.1
2017-Nov-16 14:00N 53°32' W 003°56'3 0.2
2017-Nov-15 23:56N 53°35' W 003°59'1018.0
2017-Nov-15 23:23N 53°34' W 003°43'718.0
2017-Nov-15 23:00N 53°34' W 003°31'917.7
2017-Nov-15 22:30N 53°32' W 003°17'815.2
2017-Nov-15 22:00N 53°29' W 003°05'3 6.2
2017-Nov-15 21:30N 53°27' W 003°01'0 0.9
2017-Nov-15 21:00N 53°27' W 003°01'0 0.0
2017-Nov-15 20:30N 53°27' W 003°01'0 0.0
2017-Nov-15 20:00N 53°27' W 003°01'0 0.0
2017-Nov-15 19:30N 53°27' W 003°01'0 0.0
2017-Nov-15 19:00N 53°27' W 003°01'0 0.0
2017-Nov-15 18:30N 53°27' W 003°01'0 0.0
2017-Nov-15 18:00N 53°27' W 003°01'0 0.0
2017-Nov-15 17:30N 53°27' W 003°01'0 0.0
2017-Nov-15 17:00N 53°27' W 003°01'0 0.9
2017-Nov-15 16:30N 53°27' W 003°01'0 0.3
2017-Nov-15 16:00N 53°27' W 003°01'510.0
2017-Nov-15 15:30N 53°31' W 003°06'815.3
2017-Nov-15 15:00N 53°31' W 003°19'1019.9
2017-Nov-15 14:30N 53°31' W 003°36'1019.5
2017-Nov-15 14:00N 53°32' W 003°52'76 7.8
2017-Nov-15 04:17N 53°22' W 005°58'816.0
2017-Nov-15 03:49N 53°24' W 005°46'6317.1
2017-Nov-15 00:07N 53°34' W 004°01'219.2
2017-Nov-14 23:59N 53°34' W 003°57'1119.7
2017-Nov-14 23:27N 53°33' W 003°39'919.4
2017-Nov-14 23:00N 53°33' W 003°24'918.3
2017-Nov-14 22:30N 53°32' W 003°09'713.6
2017-Nov-14 22:00N 53°27' W 003°01'0 0.6
2017-Nov-14 21:31N 53°27' W 003°01'0 0.4
2017-Nov-14 21:00N 53°27' W 003°01'0 0.0
2017-Nov-14 20:27N 53°27' W 003°01'0 0.0
2017-Nov-14 19:54N 53°27' W 003°01'0 0.0
2017-Nov-14 19:30N 53°27' W 003°01'0 0.0
2017-Nov-14 18:57N 53°27' W 003°01'0 0.0
2017-Nov-14 18:30N 53°27' W 003°01'0 0.0
2017-Nov-14 18:00N 53°27' W 003°01'0 0.0
2017-Nov-14 17:30N 53°27' W 003°01'0 0.0
2017-Nov-14 17:00N 53°27' W 003°01'0 0.9
2017-Nov-14 16:30N 53°27' W 003°01'0 0.3
2017-Nov-14 16:00N 53°27' W 003°01'4 8.8
2017-Nov-14 15:30N 53°30' W 003°06'815.6
2017-Nov-14 15:00N 53°31' W 003°19'1020.1
2017-Nov-14 14:30N 53°31' W 003°36'1020.0
2017-Nov-14 14:00N 53°32' W 003°53'7419.2
2017-Nov-14 10:09N 53°22' W 005°56'319.7
2017-Nov-14 10:00N 53°21' W 006°01'613.0
2017-Nov-14 09:30N 53°21' W 006°11'1 2.1
2017-Nov-14 09:00N 53°21' W 006°13'0 0.0
2017-Nov-14 08:30N 53°21' W 006°13'0 0.0
2017-Nov-14 08:00N 53°21' W 006°13'0 0.0
2017-Nov-14 07:30N 53°21' W 006°13'0 0.0
2017-Nov-14 07:00N 53°21' W 006°13'0 0.0
2017-Nov-14 06:30N 53°21' W 006°13'0 0.0
2017-Nov-14 06:00N 53°21' W 006°13'0 0.0
2017-Nov-14 05:30N 53°21' W 006°13'0 0.2
2017-Nov-14 05:00N 53°21' W 006°13'510.6
2017-Nov-14 04:30N 53°20' W 006°04'815.7
2017-Nov-14 04:00N 53°24' W 005°52'7915.2
2017-Nov-13 22:49N 53°34' W 003°40'515.9
2017-Nov-13 22:30N 53°33' W 003°32'816.0
2017-Nov-13 22:00N 53°32' W 003°19'96 4.0
2017-Nov-12 21:42N 53°21' W 005°59'317.4
2017-Nov-12 21:31N 53°20' W 006°05'510.1
2017-Nov-12 21:00N 53°21' W 006°13'0 0.3
2017-Nov-12 20:30N 53°21' W 006°13'0 0.0
2017-Nov-12 20:00N 53°21' W 006°13'0 0.0
2017-Nov-12 19:30N 53°21' W 006°13'0 0.0
2017-Nov-12 19:00N 53°21' W 006°13'0 0.0
2017-Nov-12 18:30N 53°21' W 006°13'0 0.0
2017-Nov-12 18:00N 53°21' W 006°13'0 0.0
2017-Nov-12 17:30N 53°21' W 006°13'0 0.0
2017-Nov-12 17:00N 53°21' W 006°13'0 0.0
2017-Nov-12 16:30N 53°21' W 006°13'0 0.0
2017-Nov-12 15:59N 53°21' W 006°13'0 0.0
2017-Nov-12 15:29N 53°21' W 006°13'0 0.0
2017-Nov-12 15:00N 53°21' W 006°13'0 0.0
2017-Nov-12 14:30N 53°21' W 006°13'0 0.0
2017-Nov-12 14:00N 53°21' W 006°13'0 0.0
2017-Nov-12 13:30N 53°21' W 006°13'0 0.0
2017-Nov-12 13:00N 53°21' W 006°13'0 0.0
2017-Nov-12 12:30N 53°21' W 006°13'0 0.0
2017-Nov-12 12:00N 53°21' W 006°13'0 0.0
2017-Nov-12 11:30N 53°21' W 006°13'0 0.0
2017-Nov-12 11:00N 53°21' W 006°13'0 0.0
2017-Nov-12 10:30N 53°21' W 006°13'0 0.0
2017-Nov-12 10:00N 53°21' W 006°13'0 0.0
2017-Nov-12 09:30N 53°21' W 006°13'0 0.0
2017-Nov-12 09:00N 53°21' W 006°13'0 0.0
2017-Nov-12 08:28N 53°21' W 006°13'0 0.0
2017-Nov-12 08:00N 53°21' W 006°13'0 0.0
2017-Nov-12 07:30N 53°21' W 006°13'0 0.0
2017-Nov-12 07:00N 53°21' W 006°13'0 0.0
2017-Nov-12 06:30N 53°21' W 006°13'1 1.2
2017-Nov-12 06:00N 53°21' W 006°12'713.8
2017-Nov-12 05:31N 53°21' W 006°01'918.2
2017-Nov-12 05:00N 53°24' W 005°46'6016.8
2017-Nov-12 01:27N 53°35' W 004°08'817.7
2017-Nov-12 01:00N 53°35' W 003°54'918.2
2017-Nov-12 00:31N 53°34' W 003°39'918.5
2017-Nov-12 00:00N 53°33' W 003°24'917.4
2017-Nov-11 23:30N 53°32' W 003°09'713.4
2017-Nov-11 23:00N 53°27' W 003°01'0 0.0
2017-Nov-11 22:30N 53°27' W 003°01'0 0.8
2017-Nov-11 22:00N 53°27' W 003°01'0 0.0
2017-Nov-11 21:30N 53°27' W 003°01'0 0.0
2017-Nov-11 21:00N 53°27' W 003°01'0 0.0
2017-Nov-11 20:30N 53°27' W 003°01'0 0.0
2017-Nov-11 20:00N 53°27' W 003°01'0 0.0
2017-Nov-11 19:30N 53°27' W 003°01'0 0.0
2017-Nov-11 19:00N 53°27' W 003°01'0 0.0
2017-Nov-11 18:30N 53°27' W 003°01'0 0.4
2017-Nov-11 18:00N 53°27' W 003°01'0 0.9
2017-Nov-11 17:30N 53°27' W 003°01'3 5.0
2017-Nov-11 17:00N 53°28' W 003°04'3 6.5
2017-Nov-11 16:30N 53°31' W 003°07'815.8
2017-Nov-11 16:00N 53°31' W 003°20'917.1
2017-Nov-11 15:30N 53°31' W 003°35'816.3
2017-Nov-11 15:00N 53°32' W 003°48'7615.0
2017-Nov-11 09:57N 53°22' W 005°55'716.4
2017-Nov-11 09:30N 53°20' W 006°07'4 7.5
2017-Nov-11 09:00N 53°21' W 006°13'0 0.0
2017-Nov-11 08:30N 53°21' W 006°13'0 0.0
2017-Nov-11 08:00N 53°21' W 006°13'0 0.0
2017-Nov-11 07:31N 53°21' W 006°13'0 0.0
2017-Nov-11 07:00N 53°21' W 006°13'0 0.0
2017-Nov-11 06:30N 53°21' W 006°13'0 0.0
2017-Nov-11 06:00N 53°21' W 006°13'0 0.0
2017-Nov-11 05:30N 53°21' W 006°13'0 0.2
2017-Nov-11 05:00N 53°21' W 006°13'612.2
2017-Nov-11 04:30N 53°21' W 006°03'7318.5
2017-Nov-11 00:34N 53°34' W 004°03'117.3
2017-Nov-11 00:30N 53°34' W 004°01'917.4
2017-Nov-10 23:58N 53°34' W 003°45'817.7
2017-Nov-10 23:30N 53°33' W 003°31'917.8
2017-Nov-10 23:00N 53°32' W 003°17'714.9
2017-Nov-10 22:30N 53°29' W 003°05'3 6.4
2017-Nov-10 22:00N 53°27' W 003°01'0 0.7
2017-Nov-10 21:30N 53°27' W 003°01'0 0.2
2017-Nov-10 21:00N 53°27' W 003°01'0 0.0
2017-Nov-10 20:30N 53°27' W 003°01'0 0.0
2017-Nov-10 20:00N 53°27' W 003°01'0 0.0
2017-Nov-10 19:30N 53°27' W 003°01'0 0.0
2017-Nov-10 19:00N 53°27' W 003°01'0 0.0
2017-Nov-10 18:30N 53°27' W 003°01'0 0.0
2017-Nov-10 18:00N 53°27' W 003°01'0 0.0
2017-Nov-10 17:30N 53°27' W 003°01'0 0.0
2017-Nov-10 17:00N 53°27' W 003°01'0 0.8
2017-Nov-10 16:30N 53°27' W 003°01'1 1.8
2017-Nov-10 16:00N 53°27' W 003°02'714.1
2017-Nov-10 15:30N 53°31' W 003°12'918.6
2017-Nov-10 15:00N 53°31' W 003°28'1019.0
2017-Nov-10 14:30N 53°31' W 003°44'1019.5
2017-Nov-10 14:00N 53°32' W 004°00'6619.4
2017-Nov-10 10:36N 53°24' W 005°49'219.0
2017-Nov-10 10:29N 53°23' W 005°53'817.2
2017-Nov-10 10:00N 53°20' W 006°06'4 8.2
2017-Nov-10 09:30N 53°21' W 006°13'0 0.0
2017-Nov-10 09:00N 53°21' W 006°13'0 0.0
2017-Nov-10 08:30N 53°21' W 006°13'0 0.0
2017-Nov-10 08:00N 53°21' W 006°13'0 0.0
2017-Nov-10 07:30N 53°21' W 006°13'0 0.0
2017-Nov-10 07:00N 53°21' W 006°13'0 0.0
2017-Nov-10 06:30N 53°21' W 006°13'0 0.0
2017-Nov-10 06:00N 53°21' W 006°13'0 0.1
2017-Nov-10 05:30N 53°21' W 006°13'4 8.1
2017-Nov-10 05:00N 53°20' W 006°06'1019.4
2017-Nov-10 04:31N 53°24' W 005°51'6518.7
2017-Nov-10 01:02N 53°35' W 004°03'118.1
2017-Nov-10 00:58N 53°35' W 004°01'1318.4
2017-Nov-10 00:17N 53°34' W 003°40'518.5
2017-Nov-10 00:00N 53°33' W 003°31'918.6
2017-Nov-09 23:31N 53°32' W 003°16'713.8
2017-Nov-09 23:00N 53°29' W 003°05'3 6.7
2017-Nov-09 22:30N 53°27' W 003°01'0 0.8
2017-Nov-09 22:00N 53°27' W 003°01'0 0.1
2017-Nov-09 21:29N 53°27' W 003°01'0 0.0
2017-Nov-09 20:59N 53°27' W 003°01'0 0.0
2017-Nov-09 20:23N 53°27' W 003°01'0 0.0
2017-Nov-09 19:59N 53°27' W 003°01'0 0.0
2017-Nov-09 19:29N 53°27' W 003°01'0 0.0
2017-Nov-09 18:53N 53°27' W 003°01'0 0.0
2017-Nov-09 18:29N 53°27' W 003°01'0 0.7
2017-Nov-09 18:00N 53°27' W 003°01'0 0.6
2017-Nov-09 17:30N 53°27' W 003°01'1 1.0
2017-Nov-09 17:00N 53°27' W 003°02'2 4.4
2017-Nov-09 16:30N 53°29' W 003°04'3 5.6
2017-Nov-09 16:00N 53°31' W 003°07'4 7.4
2017-Nov-09 15:30N 53°31' W 003°13'5 9.1
2017-Nov-09 15:00N 53°31' W 003°21'816.7
2017-Nov-09 14:30N 53°30' W 003°35'1019.0
2017-Nov-09 13:59N 53°31' W 003°51'919.5
2017-Nov-09 13:30N 53°33' W 004°07'6219.5
2017-Nov-09 10:19N 53°23' W 005°50'619.2
2017-Nov-09 10:00N 53°21' W 005°60'714.4
2017-Nov-09 09:30N 53°21' W 006°12'1 1.9
2017-Nov-09 09:00N 53°21' W 006°13'0 0.0
2017-Nov-09 08:30N 53°21' W 006°13'0 0.0
2017-Nov-09 08:00N 53°21' W 006°13'0 0.0
2017-Nov-09 07:30N 53°21' W 006°13'0 0.0
2017-Nov-09 07:00N 53°21' W 006°13'0 0.0
2017-Nov-09 06:30N 53°21' W 006°13'0 0.0
2017-Nov-09 06:00N 53°21' W 006°13'0 0.0
2017-Nov-09 05:30N 53°21' W 006°13'  

Dump ship's entire track history